CST,Max TemperatureF,Mean TemperatureF,Min TemperatureF,Max Dew PointF,MeanDew PointF,Min DewpointF,Max Humidity, Mean Humidity, Min Humidity, Max Sea Level PressureIn, Mean Sea Level PressureIn, Min Sea Level PressureIn, Max VisibilityMiles, Mean VisibilityMiles, Min VisibilityMiles, Max Wind SpeedMPH, Mean Wind SpeedMPH, Max Gust SpeedMPH,PrecipitationIn, CloudCover, Events, WindDirDegrees
2012-11-1,73,55,37,41,39,34,87,51,29,30.06,30.00,29.95,10,10,10,9,7,,0.00,0,,188
2012-11-2,80,62,44,54,49,39,82,57,39,29.98,29.94,29.89,10,10,10,17,6,,0.00,5,,176
2012-11-3,64,57,50,54,39,34,71,52,39,30.14,30.08,29.90,10,10,10,14,8,,0.00,2,,337
2012-11-4,64,50,37,37,36,34,87,56,32,30.21,30.14,30.08,10,10,10,7,1,,0.00,2,,67
2012-11-5,59,52,46,46,41,37,82,67,51,30.07,30.02,29.99,10,8,1,16,10,28,0.00,6,,305
2012-11-6,57,50,42,37,37,36,81,64,48,30.11,30.07,30.02,10,9,5,15,8,21,0.00,3,,292
2012-11-7,59,48,37,34,29,27,70,47,29,30.16,30.13,30.10,10,10,10,17,8,29,0.00,1,,333
2012-11-8,68,54,41,41,36,30,65,46,32,30.14,30.06,30.00,10,10,10,16,10,25,0.00,0,,158
2012-11-9,73,65,57,55,54,48,77,64,53,30.04,29.98,29.93,10,10,10,18,15,31,0.00,1,,175
2012-11-10,73,66,59,54,52,50,72,58,44,30.03,29.95,29.88,10,10,10,18,15,34,0.00,3,,170
2012-11-11,66,52,37,57,45,32,93,82,60,30.15,29.95,29.83,10,6,2,17,14,34,0.00,8,Rain,285
2012-11-12,46,36,26,25,22,19,80,54,37,30.45,30.42,30.37,10,10,10,13,3,,0.00,0,,286
2012-11-13,51,38,26,27,23,19,80,47,28,30.51,30.43,30.35,10,10,10,8,4,,0.00,1,,138
2012-11-14,53,42,32,30,25,21,81,48,28,30.43,30.37,30.30,10,10,10,0,0,,0.00,0,,-1
2012-11-15,57,44,32,30,28,25,75,50,33,30.35,30.32,30.29,10,10,10,0,0,,0.00,2,,-1
2012-11-16,60,45,30,32,30,28,100,56,31,30.44,30.39,30.35,10,10,10,7,1,,0.00,0,,115
2012-11-17,62,47,32,32,27,25,87,45,26,30.43,30.36,30.32,10,10,10,12,4,,0.00,0,,153
2012-11-18,64,58,53,28,26,25,38,30,24,30.33,30.27,30.22,10,10,10,13,10,20,0.00,3,,154
2012-11-19,60,53,46,46,44,41,87,70,55,30.24,30.19,30.14,10,9,7,15,8,,0.00,6,Rain,182
2012-11-20,68,56,44,50,43,39,87,62,40,30.22,30.19,30.15,10,10,10,14,7,,0.00,0,,302
2012-11-21,73,53,33,45,36,28,93,55,20,30.29,30.22,30.14,10,10,7,9,6,,0.00,0,,177
2012-11-22,66,60,53,46,44,39,67,56,46,30.10,30.05,30.01,10,10,10,18,12,30,0.00,7,Rain,185
2012-11-23,46,40,32,36,27,21,76,58,46,30.42,30.40,30.33,10,10,10,20,12,29,0.00,0,,320
2012-11-24,51,38,24,27,20,16,80,48,26,30.38,30.23,30.07,10,10,10,12,3,,0.00,4,,180
2012-11-25,62,50,39,36,30,21,81,45,25,29.98,29.93,29.87,10,10,10,17,11,29,0.00,0,,198
2012-11-26,51,45,37,46,39,28,100,80,65,30.29,30.08,29.94,10,8,2,18,10,26,0.00,8,Rain,52
2012-11-27,46,35,24,39,28,23,100,74,46,30.44,30.36,30.29,10,10,7,6,3,,0.00,0,,335
2012-11-28,57,42,26,32,28,23,86,60,33,30.43,30.35,30.27,10,10,10,12,4,,0.00,0,,147
2012-11-29,62,48,35,36,32,28,81,49,30,30.22,30.15,30.10,10,10,10,17,13,28,0.00,3,,185
2012-11-30,66,54,42,52,47,36,88,66,56,30.17,30.11,30.06,10,10,10,14,9,23,0.00,2,,187